createdAt,value
2018-03-26T00:00:30.236Z,2.7
2018-03-26T00:01:20.295Z,2.7
2018-03-26T00:02:10.662Z,2.7
2018-03-26T00:03:00.714Z,2.7
2018-03-26T00:03:50.462Z,2.7
2018-03-26T00:04:40.537Z,2.7
2018-03-26T00:05:30.592Z,2.7
2018-03-26T00:06:20.651Z,2.7
2018-03-26T00:07:10.978Z,2.7
2018-03-26T00:08:00.461Z,2.7
2018-03-26T00:08:50.825Z,2.7
2018-03-26T00:09:41.153Z,2.7
2018-03-26T00:10:30.932Z,2.7
2018-03-26T00:11:21.281Z,2.7
2018-03-26T00:12:11.312Z,2.7
2018-03-26T00:13:00.814Z,2.7
2018-03-26T00:13:51.443Z,2.7
2018-03-26T00:14:41.503Z,2.7
2018-03-26T00:15:31.269Z,2.7
2018-03-26T00:16:20.924Z,2.7
2018-03-26T00:17:11.376Z,2.7
2018-03-26T00:18:01.151Z,2.7
2018-03-26T00:18:51.503Z,2.7
2018-03-26T00:19:41.556Z,2.7
2018-03-26T00:20:31.323Z,2.8
2018-03-26T00:21:21.464Z,2.7
2018-03-26T00:22:11.999Z,2.7
2018-03-26T00:23:01.193Z,2.8
2018-03-26T00:23:51.939Z,2.8
2018-03-26T00:24:41.487Z,2.7
2018-03-26T00:25:31.750Z,2.7
2018-03-26T00:26:22.001Z,2.8
2018-03-26T00:27:11.781Z,2.8
2018-03-26T00:28:02.125Z,2.8
2018-03-26T00:28:52.180Z,2.8
2018-03-26T00:29:41.951Z,2.8
2018-03-26T00:30:32.574Z,2.8
2018-03-26T00:31:22.452Z,2.8
2018-03-26T00:32:12.407Z,2.8
2018-03-26T00:33:02.160Z,2.8
2018-03-26T00:33:52.818Z,2.8
2018-03-26T00:34:42.284Z,2.8
2018-03-26T00:35:32.435Z,2.8
2018-03-26T00:36:22.695Z,2.8
2018-03-26T00:37:12.752Z,2.8
2018-03-26T00:38:03.098Z,2.8
2018-03-26T00:38:53.154Z,2.8
2018-03-26T00:39:43.232Z,2.8
2018-03-26T00:40:32.687Z,2.7
2018-03-26T00:41:22.744Z,2.8
2018-03-26T00:42:13.080Z,2.7
2018-03-26T00:43:02.950Z,2.8
2018-03-26T00:43:52.912Z,2.8
2018-03-26T00:44:43.070Z,2.8
2018-03-26T00:45:33.599Z,2.7
2018-03-26T00:46:23.670Z,2.7
2018-03-26T00:47:13.713Z,2.7
2018-03-26T00:48:03.756Z,2.8
2018-03-26T00:48:53.811Z,2.7
2018-03-26T00:49:43.877Z,2.7
2018-03-26T00:50:33.939Z,2.7
2018-03-26T00:51:24.000Z,2.7
2018-03-26T00:52:14.066Z,2.7
2018-03-26T00:53:04.116Z,2.7
2018-03-26T00:53:54.160Z,2.7
2018-03-26T00:54:43.937Z,2.7
2018-03-26T00:55:33.990Z,2.7
2018-03-26T00:56:24.333Z,2.7
2018-03-26T00:57:14.109Z,2.7
2018-03-26T00:58:04.187Z,2.7
2018-03-26T00:58:54.499Z,2.6
2018-03-26T00:59:44.552Z,2.7
2018-03-26T01:00:34.352Z,2.6
2018-03-26T01:01:24.667Z,2.7
2018-03-26T01:02:14.724Z,2.6
2018-03-26T01:03:04.500Z,2.6
2018-03-26T01:03:54.844Z,2.6
2018-03-26T01:04:44.897Z,2.6
2018-03-26T01:05:34.979Z,2.6
2018-03-26T01:06:25.014Z,2.6
2018-03-26T01:07:15.098Z,2.6
2018-03-26T01:08:04.857Z,2.6
2018-03-26T01:08:54.902Z,2.6
2018-03-26T01:09:45.244Z,2.6
2018-03-26T01:10:35.299Z,2.6
2018-03-26T01:11:25.361Z,2.6
2018-03-26T01:12:15.128Z,2.6
2018-03-26T01:13:05.506Z,2.6
2018-03-26T01:13:55.521Z,2.6
2018-03-26T01:14:45.575Z,2.6
2018-03-26T01:15:35.357Z,2.6
2018-03-26T01:16:25.697Z,2.6
2018-03-26T01:17:15.768Z,2.6
2018-03-26T01:18:05.223Z,2.6
2018-03-26T01:18:55.599Z,2.6
2018-03-26T01:19:45.630Z,2.6
2018-03-26T01:20:35.708Z,2.6
2018-03-26T01:21:26.058Z,2.6
2018-03-26T01:22:15.825Z,2.6
2018-03-26T01:23:06.177Z,2.6
2018-03-26T01:23:55.730Z,2.6
2018-03-26T01:24:45.997Z,2.6
2018-03-26T01:25:36.358Z,2.6
2018-03-26T01:26:26.390Z,2.5
2018-03-26T01:27:15.880Z,2.6
2018-03-26T01:28:06.505Z,2.5
2018-03-26T01:28:55.782Z,2.5
2018-03-26T01:29:46.132Z,2.5
2018-03-26T01:30:36.392Z,2.5
2018-03-26T01:31:26.245Z,2.5
2018-03-26T01:32:16.502Z,2.5
2018-03-26T01:33:06.559Z,2.5
2018-03-26T01:33:56.510Z,2.5
2018-03-26T01:34:46.388Z,2.5
2018-03-26T01:35:36.713Z,2.5
2018-03-26T01:36:26.779Z,2.5
2018-03-26T01:37:16.834Z,2.4
2018-03-26T01:38:06.899Z,2.4
2018-03-26T01:38:56.550Z,2.4
2018-03-26T01:39:47.289Z,2.4
2018-03-26T01:40:36.859Z,2.4
2018-03-26T01:41:27.419Z,2.4
2018-03-26T01:42:17.199Z,2.4
2018-03-26T01:43:07.243Z,2.4
2018-03-26T01:43:57.590Z,2.4
2018-03-26T01:44:47.064Z,2.4
2018-03-26T01:45:37.134Z,2.4
2018-03-26T01:46:27.273Z,2.4
2018-03-26T01:47:17.857Z,2.4
2018-03-26T01:48:07.304Z,2.4
2018-03-26T01:48:57.936Z,2.4
2018-03-26T01:49:47.502Z,2.4
2018-03-26T01:50:37.463Z,2.4
2018-03-26T01:51:27.514Z,2.4
2018-03-26T01:52:18.169Z,2.4
2018-03-26T01:53:07.638Z,2.4
2018-03-26T01:53:58.277Z,2.4
2018-03-26T01:54:47.754Z,2.4
2018-03-26T01:55:38.184Z,2.4
2018-03-26T01:56:28.257Z,2.4
2018-03-26T01:57:18.221Z,2.4
2018-03-26T01:58:08.573Z,2.4
2018-03-26T01:58:57.925Z,2.4
2018-03-26T01:59:48.663Z,2.3
2018-03-26T02:00:38.146Z,2.4
2018-03-26T02:01:28.484Z,2.4
2018-03-26T02:02:18.835Z,2.4
2018-03-26T02:03:08.903Z,2.3
2018-03-26T02:03:58.363Z,2.3
2018-03-26T02:04:48.565Z,2.3
2018-03-26T02:05:38.489Z,2.3
2018-03-26T02:06:28.931Z,2.4
2018-03-26T02:07:18.695Z,2.3
2018-03-26T02:08:08.661Z,2.3
2018-03-26T02:08:58.720Z,2.3
2018-03-26T02:09:48.868Z,2.3
2018-03-26T02:10:39.423Z,2.3
2018-03-26T02:11:29.188Z,2.3
2018-03-26T02:12:19.335Z,2.3
2018-03-26T02:13:09.298Z,2.3
2018-03-26T02:13:59.356Z,2.3
2018-03-26T02:14:49.127Z,2.3
2018-03-26T02:15:39.470Z,2.3
2018-03-26T02:16:29.220Z,2.3
2018-03-26T02:17:19.296Z,2.3
2018-03-26T02:18:09.633Z,2.3
2018-03-26T02:18:59.490Z,2.3
2018-03-26T02:19:49.265Z,2.3
2018-03-26T02:20:39.516Z,2.3
2018-03-26T02:21:29.862Z,2.3
2018-03-26T02:22:19.424Z,2.3
2018-03-26T02:23:09.480Z,2.3
2018-03-26T02:23:59.549Z,2.3
2018-03-26T02:24:49.694Z,2.3
2018-03-26T02:25:39.749Z,2.3
2018-03-26T02:26:29.984Z,2.3
2018-03-26T02:27:20.055Z,2.3
2018-03-26T02:28:09.831Z,2.3
2018-03-26T02:28:59.881Z,2.3
2018-03-26T02:29:50.035Z,2.3
2018-03-26T02:30:40.001Z,2.3
2018-03-26T02:31:30.351Z,2.3
2018-03-26T02:32:20.400Z,2.3
2018-03-26T02:33:10.173Z,2.3
2018-03-26T02:34:00.236Z,2.3
2018-03-26T02:34:51.103Z,2.3
2018-03-26T02:35:40.346Z,2.3
2018-03-26T02:36:30.892Z,2.3
2018-03-26T02:37:20.447Z,2.3
2018-03-26T02:38:11.291Z,2.3
2018-03-26T02:39:00.865Z,2.3
2018-03-26T02:39:51.421Z,2.3
2018-03-26T02:40:40.696Z,2.3
2018-03-26T02:41:30.623Z,2.3
2018-03-26T02:42:21.073Z,2.3
2018-03-26T02:43:11.337Z,2.3
2018-03-26T02:44:01.399Z,2.3
2018-03-26T02:44:51.351Z,2.3
2018-03-26T02:45:41.228Z,2.3
2018-03-26T02:46:31.561Z,2.3
2018-03-26T02:47:21.634Z,2.3
2018-03-26T02:48:11.965Z,2.3
2018-03-26T02:49:01.734Z,2.2
2018-03-26T02:49:51.508Z,2.3
2018-03-26T02:50:42.014Z,2.3
2018-03-26T02:51:31.921Z,2.3
2018-03-26T02:52:21.980Z,2.2
2018-03-26T02:53:12.022Z,2.3
2018-03-26T02:54:02.380Z,2.3
2018-03-26T02:54:52.422Z,2.3
2018-03-26T02:55:42.488Z,2.3
2018-03-26T02:56:32.303Z,2.3
2018-03-26T02:57:22.113Z,2.3
2018-03-26T02:58:12.381Z,2.3
2018-03-26T02:59:02.474Z,2.3
2018-03-26T02:59:52.286Z,2.3
2018-03-26T03:00:42.833Z,2.2
2018-03-26T03:01:32.305Z,2.2
2018-03-26T03:02:22.948Z,2.3
2018-03-26T03:03:12.990Z,2.2
2018-03-26T03:04:03.057Z,2.3
2018-03-26T03:04:53.093Z,2.3
2018-03-26T03:05:43.183Z,2.2
2018-03-26T03:06:32.359Z,2.3
2018-03-26T03:07:22.997Z,2.3
2018-03-26T03:08:13.048Z,2.3
2018-03-26T03:09:03.396Z,2.2
2018-03-26T03:09:53.447Z,2.2
2018-03-26T03:10:43.502Z,2.3
2018-03-26T03:11:33.264Z,2.3
2018-03-26T03:12:23.614Z,2.3
2018-03-26T03:13:13.719Z,2.2
2018-03-26T03:14:03.731Z,2.3
2018-03-26T03:14:53.487Z,2.3
2018-03-26T03:15:43.838Z,2.2
2018-03-26T03:16:33.616Z,2.3
2018-03-26T03:17:23.948Z,2.3
2018-03-26T03:18:14.018Z,2.3
2018-03-26T03:19:03.586Z,2.3
2018-03-26T03:19:53.829Z,2.3
2018-03-26T03:20:44.176Z,2.3
2018-03-26T03:21:34.236Z,2.3
2018-03-26T03:22:24.293Z,2.3
2018-03-26T03:23:14.359Z,2.3
2018-03-26T03:24:04.126Z,2.2
2018-03-26T03:24:54.186Z,2.3
2018-03-26T03:25:44.636Z,2.3
2018-03-26T03:26:34.604Z,2.3
2018-03-26T03:27:24.064Z,2.3
2018-03-26T03:28:14.410Z,2.3
2018-03-26T03:29:04.269Z,2.3
2018-03-26T03:29:54.524Z,2.3
2018-03-26T03:30:44.603Z,2.3
2018-03-26T03:31:34.647Z,2.3
2018-03-26T03:32:24.403Z,2.3
2018-03-26T03:33:15.056Z,2.3
2018-03-26T03:34:04.613Z,2.3
2018-03-26T03:34:55.158Z,2.3
2018-03-26T03:35:45.201Z,2.3
2018-03-26T03:36:34.993Z,2.3
2018-03-26T03:37:25.320Z,2.3
2018-03-26T03:38:14.808Z,2.3
2018-03-26T03:39:04.855Z,2.3
2018-03-26T03:39:55.221Z,2.3
2018-03-26T03:40:45.274Z,2.3
2018-03-26T03:41:35.321Z,2.3
2018-03-26T03:42:25.183Z,2.3
2018-03-26T03:43:15.435Z,2.3
2018-03-26T03:44:05.495Z,2.3
2018-03-26T03:44:55.545Z,2.3
2018-03-26T03:45:45.120Z,2.3
2018-03-26T03:46:35.263Z,2.3
2018-03-26T03:47:25.712Z,2.3
2018-03-26T03:48:16.070Z,2.3
2018-03-26T03:49:05.940Z,2.3
2018-03-26T03:49:56.177Z,2.3
2018-03-26T03:50:46.246Z,2.3
2018-03-26T03:51:35.723Z,2.3
2018-03-26T03:52:26.355Z,2.3
2018-03-26T03:53:16.422Z,2.3
2018-03-26T03:54:05.973Z,2.3
2018-03-26T03:54:56.526Z,2.3
2018-03-26T03:55:46.588Z,2.3
2018-03-26T03:56:36.241Z,2.3
2018-03-26T03:57:26.687Z,2.3
2018-03-26T03:58:16.159Z,2.3
2018-03-26T03:59:06.565Z,2.3
2018-03-26T03:59:56.082Z,2.3
2018-03-26T04:00:46.149Z,2.3
2018-03-26T04:01:35.990Z,2.3
2018-03-26T04:02:26.441Z,2.3
2018-03-26T04:03:17.109Z,2.3
2018-03-26T04:04:06.567Z,2.3
2018-03-26T04:04:56.905Z,2.3
2018-03-26T04:05:46.964Z,2.3
2018-03-26T04:06:36.706Z,2.3
2018-03-26T04:07:26.786Z,2.3
2018-03-26T04:08:17.426Z,2.3
2018-03-26T04:09:07.188Z,2.3
2018-03-26T04:09:57.237Z,2.3
2018-03-26T04:10:46.811Z,2.3
2018-03-26T04:11:37.076Z,2.3
2018-03-26T04:12:27.465Z,2.3
2018-03-26T04:13:17.771Z,2.3
2018-03-26T04:14:07.130Z,2.3
2018-03-26T04:14:57.868Z,2.3
2018-03-26T04:15:47.660Z,2.3
2018-03-26T04:16:37.516Z,2.3
2018-03-26T04:17:27.376Z,2.3
2018-03-26T04:18:18.094Z,2.3
2018-03-26T04:19:08.172Z,2.3
2018-03-26T04:19:58.219Z,2.3
2018-03-26T04:20:48.276Z,2.3
2018-03-26T04:21:38.350Z,2.3
2018-03-26T04:22:28.394Z,2.3
2018-03-26T04:23:17.868Z,2.3
2018-03-26T04:24:08.314Z,2.3
2018-03-26T04:24:58.277Z,2.3
2018-03-26T04:25:48.401Z,2.3
2018-03-26T04:26:38.672Z,2.3
2018-03-26T04:27:28.441Z,2.3
2018-03-26T04:28:18.286Z,2.3
2018-03-26T04:29:08.357Z,2.3
2018-03-26T04:29:57.919Z,2.3
2018-03-26T04:30:48.474Z,2.3
2018-03-26T04:31:38.224Z,2.3
2018-03-26T04:32:29.085Z,2.3
2018-03-26T04:33:19.150Z,2.3
2018-03-26T04:34:08.893Z,2.3
2018-03-26T04:34:58.956Z,2.3
2018-03-26T04:35:48.708Z,2.3
2018-03-26T04:36:39.348Z,2.3
2018-03-26T04:37:29.222Z,2.3
2018-03-26T04:38:19.179Z,2.3
2018-03-26T04:39:09.234Z,2.3
2018-03-26T04:39:59.101Z,2.3
2018-03-26T04:40:49.677Z,2.3
2018-03-26T04:41:39.138Z,2.3
2018-03-26T04:42:29.468Z,2.3
2018-03-26T04:43:19.515Z,2.3
2018-03-26T04:44:09.291Z,2.3
2018-03-26T04:44:59.346Z,2.3
2018-03-26T04:45:49.976Z,2.3
2018-03-26T04:46:39.455Z,2.3
2018-03-26T04:47:30.096Z,2.3
2018-03-26T04:48:20.130Z,2.3
2018-03-26T04:49:10.211Z,2.3
2018-03-26T04:49:59.686Z,2.3
2018-03-26T04:50:49.735Z,2.3
2018-03-26T04:51:40.081Z,2.3
2018-03-26T04:52:30.127Z,2.3
2018-03-26T04:53:20.189Z,2.4
2018-03-26T04:54:10.056Z,2.3
2018-03-26T04:55:00.608Z,2.3
2018-03-26T04:55:50.549Z,2.4
2018-03-26T04:56:40.133Z,2.4
2018-03-26T04:57:29.984Z,2.4
2018-03-26T04:58:20.533Z,2.4
2018-03-26T04:59:10.633Z,2.4
2018-03-26T05:00:00.947Z,2.4
2018-03-26T05:00:50.691Z,2.4
2018-03-26T05:01:41.058Z,2.4
2018-03-26T05:02:30.537Z,2.4
2018-03-26T05:03:20.874Z,2.4
2018-03-26T05:04:11.204Z,2.4
2018-03-26T05:05:00.990Z,2.5
2018-03-26T05:05:51.321Z,2.5
2018-03-26T05:06:41.100Z,2.5
2018-03-26T05:07:31.160Z,2.5
2018-03-26T05:08:20.929Z,2.5
2018-03-26T05:09:11.566Z,2.6
2018-03-26T05:10:00.839Z,2.6
2018-03-26T05:10:50.901Z,2.6
2018-03-26T05:11:41.452Z,2.6
2018-03-26T05:12:31.014Z,2.6
2018-03-26T05:13:21.854Z,2.6
2018-03-26T05:14:11.691Z,2.6
2018-03-26T05:15:01.682Z,2.7
2018-03-26T05:15:51.442Z,2.6
2018-03-26T05:16:41.781Z,2.7
2018-03-26T05:17:31.553Z,2.7
2018-03-26T20:17:44.952Z,5.1
2018-03-26T20:18:35.009Z,5.1
2018-03-26T20:19:25.094Z,5.1
2018-03-26T20:20:15.129Z,5.1
2018-03-26T20:21:04.616Z,5.1
2018-03-26T20:21:55.253Z,5.1
2018-03-26T20:22:45.296Z,5.1
2018-03-26T20:23:35.358Z,5.1
2018-03-26T20:24:25.418Z,5.1
2018-03-26T20:25:15.187Z,5.1
2018-03-26T20:26:05.583Z,5.1
2018-03-26T20:26:55.617Z,5.1
2018-03-26T20:27:45.653Z,5.1
2018-03-26T20:28:35.699Z,5.1
2018-03-26T20:29:25.768Z,5.1
2018-03-26T20:30:15.815Z,5.1
2018-03-26T20:31:05.398Z,5.1
2018-03-26T20:31:55.373Z,5
2018-03-26T20:32:45.745Z,5.1
2018-03-26T20:33:35.786Z,5.1
2018-03-26T20:34:25.828Z,5.1
2018-03-26T20:35:15.901Z,5
2018-03-26T20:36:05.946Z,5
2018-03-26T20:36:56.303Z,5
2018-03-26T20:37:46.056Z,5.1
2018-03-26T20:38:36.389Z,5
2018-03-26T20:39:26.461Z,5
2018-03-26T20:40:16.224Z,5
2018-03-26T20:41:06.587Z,5
2018-03-26T20:41:56.650Z,5
2018-03-26T20:42:46.687Z,5
2018-03-26T20:43:36.799Z,5
2018-03-26T20:44:26.789Z,5
2018-03-26T20:45:16.855Z,5
2018-03-26T20:46:06.922Z,4.9
2018-03-26T20:46:56.975Z,4.9
2018-03-26T20:47:46.768Z,4.9
2018-03-26T20:48:37.081Z,4.9
2018-03-26T20:49:27.154Z,4.9
2018-03-26T20:50:16.923Z,4.9
2018-03-26T20:51:06.979Z,4.9
2018-03-26T20:51:57.341Z,4.9
2018-03-26T20:52:47.425Z,4.9
2018-03-26T20:53:37.512Z,4.9
2018-03-26T20:54:27.482Z,4.9
2018-03-26T20:55:17.290Z,4.9
2018-03-26T20:56:07.618Z,4.9
2018-03-26T20:56:57.655Z,4.9
2018-03-26T20:57:47.718Z,4.9
2018-03-26T20:58:37.776Z,4.9
2018-03-26T20:59:27.832Z,4.9
2018-03-26T21:00:17.887Z,4.9
2018-03-26T21:01:07.952Z,4.9
2018-03-26T21:01:58.011Z,4.9
2018-03-26T21:02:48.067Z,4.9
2018-03-26T21:03:38.119Z,4.9
2018-03-26T21:04:28.201Z,4.8
2018-03-26T21:05:18.245Z,4.9
2018-03-26T21:06:08.443Z,4.9
2018-03-26T21:06:58.367Z,4.9
2018-03-26T21:07:48.451Z,4.9
2018-03-26T21:08:38.511Z,4.8
2018-03-26T21:09:28.532Z,4.8
2018-03-26T21:10:18.308Z,4.8
2018-03-26T21:11:08.634Z,4.8
2018-03-26T21:11:58.703Z,4.8
2018-03-26T21:12:48.765Z,4.8
2018-03-26T21:13:38.826Z,4.8
2018-03-26T21:14:28.893Z,4.8
2018-03-26T21:15:18.929Z,4.8
2018-03-26T21:16:08.706Z,4.8
2018-03-26T21:16:59.058Z,4.8
2018-03-26T21:17:48.820Z,4.8
2018-03-26T21:18:38.600Z,4.8
2018-03-26T21:19:29.273Z,4.8
2018-03-26T21:20:19.002Z,4.8
2018-03-26T21:21:09.327Z,4.8
2018-03-26T21:21:59.119Z,4.8
2018-03-26T21:22:49.438Z,4.8
2018-03-26T21:23:39.523Z,4.8
2018-03-26T21:24:29.598Z,4.8
2018-03-26T21:25:19.615Z,4.8
2018-03-26T21:26:09.393Z,4.8
2018-03-26T21:26:59.449Z,4.8
2018-03-26T21:27:49.505Z,4.8
2018-03-26T21:28:39.856Z,4.8
2018-03-26T21:29:29.900Z,4.8
2018-03-26T21:30:19.678Z,4.8
2018-03-26T21:31:10.023Z,4.8
2018-03-26T21:32:00.065Z,4.8
2018-03-26T21:32:50.127Z,4.8
2018-03-26T21:33:40.205Z,4.8
2018-03-26T21:34:30.305Z,4.8
2018-03-26T21:35:20.304Z,4.8
2018-03-26T21:36:10.081Z,4.8
2018-03-26T21:37:00.418Z,4.8
2018-03-26T21:37:50.487Z,4.8
2018-03-26T21:38:40.528Z,4.8
2018-03-26T21:39:30.587Z,4.8
2018-03-26T21:40:20.374Z,4.7
2018-03-26T21:41:10.436Z,4.7
2018-03-26T21:42:00.784Z,4.7
2018-03-26T21:42:50.639Z,4.7
2018-03-26T21:43:40.319Z,4.7
2018-03-26T21:44:30.654Z,4.7
2018-03-26T21:45:21.008Z,4.7
2018-03-26T21:46:10.485Z,4.7
2018-03-26T21:47:01.130Z,4.7
2018-03-26T21:47:50.897Z,4.7
2018-03-26T21:48:41.252Z,4.6
2018-03-26T21:49:31.009Z,4.7
2018-03-26T21:50:20.777Z,4.7
2018-03-26T21:51:11.126Z,4.7
2018-03-26T21:52:01.479Z,4.6
2018-03-26T21:52:51.337Z,4.7
2018-03-26T21:53:41.099Z,4.7
2018-03-26T21:54:31.354Z,4.7
2018-03-26T21:55:21.398Z,4.7
2018-03-26T21:56:11.117Z,4.7
2018-03-26T21:57:01.805Z,4.7
2018-03-26T21:57:51.576Z,4.6
2018-03-26T21:58:41.449Z,4.7
2018-03-26T21:59:31.973Z,4.7
2018-03-26T22:00:21.469Z,4.6
2018-03-26T22:01:11.526Z,4.6
2018-03-26T22:02:02.163Z,4.7
2018-03-26T22:02:51.928Z,4.6
2018-03-26T22:03:42.084Z,4.6
2018-03-26T22:04:31.887Z,4.6
2018-03-26T22:05:22.413Z,4.6
2018-03-26T22:06:12.259Z,4.6
2018-03-26T22:07:01.721Z,4.6
2018-03-26T22:07:52.546Z,4.6
2018-03-26T22:08:42.601Z,4.6
2018-03-26T22:09:32.718Z,4.6
2018-03-26T22:10:22.153Z,4.6
2018-03-26T22:11:12.231Z,4.6
2018-03-26T22:12:02.648Z,4.6
2018-03-26T22:12:52.606Z,4.6
2018-03-26T22:13:42.189Z,4.6
2018-03-26T22:14:32.723Z,4.6
2018-03-26T22:15:22.498Z,4.6
2018-03-26T22:16:12.938Z,4.6
2018-03-26T22:17:02.768Z,4.6
2018-03-26T22:17:52.953Z,4.6
2018-03-26T22:18:43.028Z,4.6
2018-03-26T22:19:33.380Z,4.6
2018-03-26T22:20:23.122Z,4.6
2018-03-26T22:21:13.279Z,4.6
2018-03-26T22:22:03.254Z,4.6
2018-03-26T22:22:53.010Z,4.6
2018-03-26T22:23:43.376Z,4.6
2018-03-26T22:24:33.725Z,4.6
2018-03-26T22:25:23.186Z,4.6
2018-03-26T22:26:13.845Z,4.6
2018-03-26T22:27:03.877Z,4.6
2018-03-26T22:27:53.665Z,4.6
2018-03-26T22:28:43.691Z,4.6
2018-03-26T22:29:33.770Z,4.6
2018-03-26T22:30:23.832Z,4.5
2018-03-26T22:31:13.477Z,4.6
2018-03-26T22:32:03.948Z,4.6
2018-03-26T22:32:53.699Z,4.5
2018-03-26T22:33:43.945Z,4.5
2018-03-26T22:34:33.706Z,4.5
2018-03-26T22:35:23.887Z,4.6
2018-03-26T22:36:13.939Z,4.5
2018-03-26T22:37:03.875Z,4.5
2018-03-26T22:37:54.354Z,4.5
2018-03-26T22:38:44.096Z,4.5
2018-03-26T22:39:34.159Z,4.5
2018-03-26T22:40:24.595Z,4.5
2018-03-26T22:41:14.583Z,4.5
2018-03-26T22:42:04.922Z,4.5
2018-03-26T22:42:54.674Z,4.5
2018-03-26T22:43:45.035Z,4.5
2018-03-26T22:44:34.903Z,4.4
2018-03-26T22:45:24.944Z,4.5
2018-03-26T22:46:15.010Z,4.4
2018-03-26T22:47:05.114Z,4.4
2018-03-26T22:47:54.743Z,4.5
2018-03-26T22:48:45.401Z,4.4
2018-03-26T22:49:35.440Z,4.4
2018-03-26T22:50:24.925Z,4.4
2018-03-26T22:51:15.265Z,4.5
2018-03-26T22:52:05.332Z,4.4
2018-03-26T22:52:55.670Z,4.4
2018-03-26T22:53:45.322Z,4.4
2018-03-26T22:54:35.488Z,4.4
2018-03-26T22:55:25.252Z,4.4
2018-03-26T22:56:15.895Z,4.4
2018-03-26T22:57:05.667Z,4.4
2018-03-26T22:57:56.020Z,4.4
2018-03-26T22:58:45.792Z,4.4
2018-03-26T22:59:36.122Z,4.4
2018-03-26T23:00:26.174Z,4.4
2018-03-26T23:01:15.756Z,4.4
2018-03-26T23:02:05.720Z,4.4
2018-03-26T23:02:55.768Z,4.4
2018-03-26T23:03:46.406Z,4.4
2018-03-26T23:04:36.486Z,4.4
2018-03-26T23:05:26.046Z,4.4
2018-03-26T23:06:16.308Z,4.4
2018-03-26T23:07:06.354Z,4.4
2018-03-26T23:07:56.219Z,4.4
2018-03-26T23:08:46.465Z,4.4
2018-03-26T23:09:36.239Z,4.4
2018-03-26T23:10:26.893Z,4.4
2018-03-26T23:11:16.445Z,4.4
2018-03-26T23:12:06.594Z,4.4
2018-03-26T23:12:56.859Z,4.4
2018-03-26T23:13:46.828Z,4.4
2018-03-26T23:14:36.859Z,4.4
2018-03-26T23:15:27.224Z,4.4
2018-03-26T23:16:16.788Z,4.4
2018-03-26T23:17:07.049Z,4.4
2018-03-26T23:17:57.116Z,4.4
2018-03-26T23:18:47.157Z,4.4
2018-03-26T23:19:37.527Z,4.4
2018-03-26T23:20:27.071Z,4.4
2018-03-26T23:21:17.334Z,4.4
2018-03-26T23:22:07.103Z,4.4
2018-03-26T23:22:57.463Z,4.4
2018-03-26T23:23:47.500Z,4.4
2018-03-26T23:24:37.559Z,4.4
2018-03-26T23:25:27.336Z,4.4
2018-03-26T23:26:17.683Z,4.4
2018-03-26T23:27:07.741Z,4.4
2018-03-26T23:27:57.509Z,4.4
2018-03-26T23:28:47.572Z,4.4
2018-03-26T23:29:37.911Z,4.4
2018-03-26T23:30:27.682Z,4.4
2018-03-26T23:31:17.448Z,4.4
2018-03-26T23:32:08.073Z,4.4
2018-03-26T23:32:58.477Z,4.4
2018-03-26T23:33:47.961Z,4.3
2018-03-26T23:34:38.538Z,4.3
2018-03-26T23:35:28.313Z,4.3
2018-03-26T23:36:18.541Z,4.3
2018-03-26T23:37:08.446Z,4.3
2018-03-26T23:37:58.281Z,4.3
2018-03-26T23:38:48.298Z,4.3
2018-03-26T23:39:38.608Z,4.3
2018-03-26T23:40:28.380Z,4.3
2018-03-26T23:41:18.420Z,4.3
2018-03-26T23:42:08.782Z,4.3
2018-03-26T23:42:58.835Z,4.3
2018-03-26T23:43:48.711Z,4.3
2018-03-26T23:44:39.235Z,4.3
2018-03-26T23:45:28.712Z,4.3
2018-03-26T23:46:18.775Z,4.3
2018-03-26T23:47:09.423Z,4.3
2018-03-26T23:47:58.894Z,4.3
2018-03-26T23:48:49.226Z,4.3
2018-03-26T23:49:39.579Z,4.3
2018-03-26T23:50:29.649Z,4.3
2018-03-26T23:51:19.699Z,4.3
2018-03-26T23:52:09.460Z,4.3
2018-03-26T23:52:59.234Z,4.3
2018-03-26T23:53:49.394Z,4.3
2018-03-26T23:54:39.451Z,4.3
2018-03-26T23:55:29.681Z,4.3
2018-03-26T23:56:19.844Z,4.3
2018-03-26T23:57:10.119Z,4.3
2018-03-26T23:57:59.584Z,4.3
2018-03-26T23:58:50.232Z,4.3
2018-03-26T23:59:39.986Z,4.3
